Time;durP1;ratioP1;P1;durP2;ratioP2;P2;SDS_P1;SDS_P2;PMS_P1;PMS_P2;Temp;Humidity;BMP_temperature;BMP_pressure;BME280_temperature;BME280_humidity;BME280_pressure;Samples;Min_cycle;Max_cycle;Signal;HPM_P1;HPM_P2
2022/01/19 00:00:09;;;;;;;;;;;-4.30;99.90;;;;;;5111099;28;19918;-76
2022/01/19 00:02:35;;;;;;;;;;;-4.30;99.90;;;;;;5111335;28;19915;-74
2022/01/19 00:05:01;;;;;;;;;;;-4.30;99.90;;;;;;5109696;28;20432;-75
2022/01/19 00:07:26;;;;;;;;;;;-4.30;99.90;;;;;;5109589;28;19912;-74
2022/01/19 00:09:52;;;;;;;;;;;-4.30;99.90;;;;;;5109464;28;19908;-75
2022/01/19 00:12:17;;;;;;;;;;;-4.40;99.90;;;;;;5108273;28;19966;-74
2022/01/19 00:14:43;;;;;;;;;;;-4.40;99.90;;;;;;5111093;28;20375;-74
2022/01/19 00:17:08;;;;;;;;;;;-4.40;99.90;;;;;;5111246;28;19916;-74
2022/01/19 00:19:34;;;;;;;;;;;-4.40;99.90;;;;;;5109366;28;19951;-74
2022/01/19 00:22:00;;;;;;;;;;;-4.50;99.90;;;;;;5104636;27;19923;-75
2022/01/19 00:24:25;;;;;;;;;;;-4.40;99.90;;;;;;5069000;28;20407;-75
2022/01/19 00:26:51;;;;;;;;;;;-4.40;99.90;;;;;;5072859;28;19917;-74
2022/01/19 00:29:16;;;;;;;;;;;-4.40;99.90;;;;;;5109314;28;19918;-75
2022/01/19 00:31:42;;;;;;;;;;;-4.40;99.90;;;;;;5109496;28;20046;-75
2022/01/19 00:34:07;;;;;;;;;;;-4.40;99.90;;;;;;5110276;28;19920;-74
2022/01/19 00:36:33;;;;;;;;;;;-4.40;99.90;;;;;;5113812;28;19912;-74
2022/01/19 00:38:58;;;;;;;;;;;-4.40;99.90;;;;;;5112984;28;19919;-73
2022/01/19 00:41:24;;;;;;;;;;;-3.50;99.90;;;;;;5114717;28;20015;-75
2022/01/19 00:43:50;;;;;;;;;;;-4.50;99.90;;;;;;5113641;28;19950;-75
2022/01/19 00:46:15;;;;;;;;;;;-4.50;99.90;;;;;;5114831;28;19963;-75
2022/01/19 00:48:41;;;;;;;;;;;-4.60;99.90;;;;;;5112931;28;19977;-75
2022/01/19 00:51:07;;;;;;;;;;;-4.60;99.90;;;;;;5112813;28;20282;-74
2022/01/19 00:53:33;;;;;;;;;;;-4.60;99.90;;;;;;5112698;28;19912;-75
2022/01/19 00:55:58;;;;;;;;;;;-4.60;99.90;;;;;;5114619;28;19916;-75
2022/01/19 00:58:24;;;;;;;;;;;-4.60;99.90;;;;;;5114184;28;19931;-75
2022/01/19 01:00:50;;;;;;;;;;;-4.60;99.90;;;;;;5114368;28;19958;-75
2022/01/19 01:03:15;;;;;;;;;;;-4.60;99.90;;;;;;5113809;28;19912;-75
2022/01/19 01:05:42;;;;;;;;;;;-4.70;99.90;;;;;;5114050;28;19919;-75
2022/01/19 01:08:08;;;;;;;;;;;-4.60;99.90;;;;;;5113865;28;19916;-75
2022/01/19 01:10:41;;;;;;;;;;;-4.60;99.90;;;;;;5112492;28;19977;-74
2022/01/19 01:13:21;;;;;;;;;;;-4.60;99.90;;;;;;5110275;28;20367;-74
2022/01/19 01:16:02;;;;;;;;;;;-4.70;99.90;;;;;;5113919;28;19912;-75
2022/01/19 01:18:29;;;;;;;;;;;-4.70;99.90;;;;;;5113726;28;19969;-74
2022/01/19 01:20:56;;;;;;;;;;;-4.70;99.90;;;;;;5112527;28;19919;-74
2022/01/19 01:23:22;;;;;;;;;;;-4.70;99.90;;;;;;5113718;28;19912;-74
2022/01/19 01:25:48;;;;;;;;;;;-4.80;99.90;;;;;;5114041;28;20407;-75
2022/01/19 01:28:14;;;;;;;;;;;-4.70;99.90;;;;;;5113549;28;19943;-75
2022/01/19 01:30:40;;;;;;;;;;;-4.80;99.90;;;;;;5113763;28;20030;-75
2022/01/19 01:33:06;;;;;;;;;;;-4.80;99.90;;;;;;5113459;28;19951;-75
2022/01/19 01:35:32;;;;;;;;;;;-4.80;99.90;;;;;;5113780;28;20362;-74
2022/01/19 01:37:58;;;;;;;;;;;-4.80;99.90;;;;;;5111847;28;19926;-75
2022/01/19 01:40:25;;;;;;;;;;;-4.80;99.90;;;;;;5111731;28;19928;-75
2022/01/19 01:43:01;;;;;;;;;;;-4.80;99.90;;;;;;5111730;28;19919;-75
2022/01/19 01:45:30;;;;;;;;;;;-4.80;99.90;;;;;;5112042;28;19919;-74
2022/01/19 01:53:26;;;;;;;;;;;-4.80;99.90;;;;;;5113348;28;19930;-74
2022/01/19 01:55:57;;;;;;;;;;;-4.80;99.90;;;;;;5113443;28;19919;-76
2022/01/19 01:58:23;;;;;;;;;;;-4.80;99.90;;;;;;5111819;28;19961;-76
2022/01/19 02:00:49;;;;;;;;;;;-4.90;99.90;;;;;;5111823;28;20012;-76
2022/01/19 02:03:14;;;;;;;;;;;-4.80;99.90;;;;;;5113077;28;19989;-76
2022/01/19 02:05:54;;;;;;;;;;;-4.80;99.90;;;;;;5113568;28;19981;-75
2022/01/19 02:08:22;;;;;;;;;;;-4.90;99.90;;;;;;5113206;28;19938;-75
2022/01/19 02:21:40;;;;;;;;;;;-4.80;99.90;;;;;;5113157;28;19957;-75
2022/01/19 02:24:10;;;;;;;;;;;-4.90;99.90;;;;;;5110997;28;19920;-75
2022/01/19 02:40:16;;;;;;;;;;;-5.10;99.90;;;;;;5112222;28;19927;-75
2022/01/19 02:50:38;;;;;;;;;;;-5.10;99.90;;;;;;5112594;28;19964;-74
2022/01/19 02:53:04;;;;;;;;;;;-5.00;99.90;;;;;;5110470;28;20406;-76
2022/01/19 02:55:31;;;;;;;;;;;-5.10;99.90;;;;;;5111502;28;20403;-76
2022/01/19 02:57:57;;;;;;;;;;;-5.10;99.90;;;;;;5111539;28;19955;-75
2022/01/19 03:08:54;;;;;;;;;;;-5.10;99.90;;;;;;5111744;28;19911;-74
2022/01/19 03:11:20;;;;;;;;;;;-5.20;99.90;;;;;;5112061;28;19912;-73
2022/01/19 03:13:46;;;;;;;;;;;-5.10;99.90;;;;;;5107702;28;19976;-76
2022/01/19 03:16:12;;;;;;;;;;;-5.20;99.90;;;;;;5111988;28;19911;-75
2022/01/19 03:18:38;;;;;;;;;;;-5.20;99.90;;;;;;5094274;28;19939;-74
2022/01/19 03:21:03;;;;;;;;;;;-5.20;99.90;;;;;;5089759;28;20006;-74
2022/01/19 03:23:29;;;;;;;;;;;-5.20;99.90;;;;;;5105664;28;19916;-74
2022/01/19 03:25:56;;;;;;;;;;;-4.90;99.90;;;;;;5111627;28;19920;-76
2022/01/19 03:28:22;;;;;;;;;;;-5.10;99.90;;;;;;5096019;28;19912;-75
2022/01/19 03:30:48;;;;;;;;;;;-5.20;99.90;;;;;;5091745;28;19980;-75
2022/01/19 03:33:14;;;;;;;;;;;-5.20;99.90;;;;;;5103829;28;19912;-74
2022/01/19 03:35:39;;;;;;;;;;;-5.20;99.90;;;;;;5111378;28;19923;-74
2022/01/19 03:38:06;;;;;;;;;;;-5.10;99.90;;;;;;5109697;28;20446;-74
2022/01/19 03:40:32;;;;;;;;;;;-5.00;99.90;;;;;;5109847;28;19928;-75
2022/01/19 03:42:57;;;;;;;;;;;-5.30;99.90;;;;;;5111034;28;19922;-73
2022/01/19 03:45:23;;;;;;;;;;;-5.30;99.90;;;;;;5110127;28;19933;-76
2022/01/19 03:47:55;;;;;;;;;;;-5.30;99.90;;;;;;5109710;28;19998;-75
2022/01/19 03:50:21;;;;;;;;;;;-5.20;99.90;;;;;;5111584;28;19915;-75
2022/01/19 03:52:47;;;;;;;;;;;-5.30;99.90;;;;;;5109902;28;20014;-76
2022/01/19 03:55:13;;;;;;;;;;;-5.30;99.90;;;;;;5109961;28;19911;-75
2022/01/19 03:57:38;;;;;;;;;;;-5.30;99.90;;;;;;5111095;28;19915;-75
2022/01/19 04:00:06;;;;;;;;;;;-5.30;99.90;;;;;;5109831;28;19915;-76
2022/01/19 04:02:33;;;;;;;;;;;-5.30;99.90;;;;;;5109588;28;20291;-74
2022/01/19 04:05:08;;;;;;;;;;;-5.30;99.90;;;;;;5109613;28;19919;-74
2022/01/19 04:07:33;;;;;;;;;;;-5.20;99.90;;;;;;5109324;28;19922;-74
2022/01/19 04:09:59;;;;;;;;;;;-5.20;99.90;;;;;;5114742;28;20324;-75
2022/01/19 04:12:43;;;;;;;;;;;-5.20;99.90;;;;;;5112654;28;19916;-73
2022/01/19 04:15:10;;;;;;;;;;;-5.30;99.90;;;;;;5115052;28;19911;-74
2022/01/19 04:17:37;;;;;;;;;;;-5.30;99.90;;;;;;5113613;28;19969;-74
2022/01/19 04:20:03;;;;;;;;;;;-5.30;99.90;;;;;;5114952;28;20397;-74
2022/01/19 04:22:28;;;;;;;;;;;-5.30;99.90;;;;;;5113712;28;19955;-74
2022/01/19 04:24:54;;;;;;;;;;;-4.80;99.90;;;;;;5113472;28;19914;-74
2022/01/19 04:29:51;;;;;;;;;;;-5.20;99.90;;;;;;5114737;28;19914;-74
2022/01/19 04:32:21;;;;;;;;;;;-5.30;99.90;;;;;;5114660;28;20299;-74
2022/01/19 04:34:49;;;;;;;;;;;-5.20;99.90;;;;;;5113379;28;19908;-74
2022/01/19 05:04:25;;;;;;;;;;;-5.20;99.90;;;;;;5094131;28;20395;-74
2022/01/19 05:07:04;;;;;;;;;;;-5.20;99.90;;;;;;5093199;28;19916;-75
2022/01/19 05:09:56;;;;;;;;;;;-5.20;99.90;;;;;;5113749;28;19916;-72
2022/01/19 05:15:01;;;;;;;;;;;-5.20;99.90;;;;;;5115096;28;19915;-75
2022/01/19 05:17:26;;;;;;;;;;;-5.20;99.90;;;;;;5110596;28;19960;-75
2022/01/19 05:19:52;;;;;;;;;;;-5.20;99.90;;;;;;5091255;28;19919;-74
2022/01/19 05:22:17;;;;;;;;;;;-5.20;99.90;;;;;;5098162;28;19935;-75
2022/01/19 05:24:43;;;;;;;;;;;-5.20;99.90;;;;;;5113964;28;20373;-75
2022/01/19 05:27:09;;;;;;;;;;;-5.30;99.90;;;;;;5112270;28;20292;-75
2022/01/19 05:29:34;;;;;;;;;;;-5.30;99.90;;;;;;5112100;28;20298;-75
2022/01/19 05:32:00;;;;;;;;;;;-5.30;99.90;;;;;;5113960;28;19912;-75
2022/01/19 05:34:26;;;;;;;;;;;-5.30;99.90;;;;;;5113648;28;19916;-75
2022/01/19 05:36:51;;;;;;;;;;;-5.30;99.90;;;;;;5112185;28;19950;-75
2022/01/19 05:39:17;;;;;;;;;;;-5.40;99.90;;;;;;5112947;28;19916;-74
2022/01/19 05:41:42;;;;;;;;;;;-5.30;99.90;;;;;;5112049;28;19945;-75
2022/01/19 05:44:08;;;;;;;;;;;-5.40;99.90;;;;;;5091624;28;19923;-74
2022/01/19 05:46:35;;;;;;;;;;;-5.30;99.90;;;;;;5093478;28;19926;-75
2022/01/19 05:49:01;;;;;;;;;;;-5.40;99.90;;;;;;5111652;28;19912;-74
2022/01/19 05:51:27;;;;;;;;;;;-5.30;99.90;;;;;;5113439;28;19912;-75
2022/01/19 05:53:52;;;;;;;;;;;-5.30;99.90;;;;;;5112956;28;19912;-75
2022/01/19 05:56:18;;;;;;;;;;;-5.30;99.90;;;;;;5112142;28;19920;-75
2022/01/19 05:58:44;;;;;;;;;;;-5.30;99.90;;;;;;5111655;28;20354;-75
2022/01/19 06:01:09;;;;;;;;;;;-5.20;99.90;;;;;;5111878;28;19912;-74
2022/01/19 06:03:35;;;;;;;;;;;-5.20;99.90;;;;;;5111224;28;19916;-75
2022/01/19 06:06:00;;;;;;;;;;;-5.20;99.90;;;;;;5111918;28;19923;-76
2022/01/19 06:10:57;;;;;;;;;;;-5.20;99.90;;;;;;5113594;28;19911;-75
2022/01/19 06:13:24;;;;;;;;;;;-5.10;99.90;;;;;;5109330;28;19912;-76
2022/01/19 06:15:50;;;;;;;;;;;-4.80;99.90;;;;;;5113151;28;20278;-74
2022/01/19 06:18:16;;;;;;;;;;;-4.80;99.90;;;;;;5098408;28;19912;-74
2022/01/19 06:20:42;;;;;;;;;;;-4.90;99.90;;;;;;5092578;28;20383;-74
2022/01/19 06:23:08;;;;;;;;;;;-4.80;99.90;;;;;;5102965;28;19915;-75
2022/01/19 06:25:34;;;;;;;;;;;-4.70;99.90;;;;;;5089385;28;19927;-68
2022/01/19 06:28:00;;;;;;;;;;;-4.60;99.90;;;;;;5074821;28;19943;-68
2022/01/19 06:30:26;;;;;;;;;;;-4.40;99.90;;;;;;5084424;28;19938;-68
2022/01/19 06:32:52;;;;;;;;;;;-4.30;99.90;;;;;;5084875;28;20382;-69
2022/01/19 06:35:17;;;;;;;;;;;-4.30;99.90;;;;;;5082473;28;19919;-67
2022/01/19 06:37:43;;;;;;;;;;;-4.10;99.90;;;;;;5097851;28;19920;-68
2022/01/19 06:40:10;;;;;;;;;;;-4.00;99.90;;;;;;5074465;28;20007;-68
2022/01/19 06:42:36;;;;;;;;;;;-3.90;99.90;;;;;;5102951;28;20275;-68
2022/01/19 06:45:02;;;;;;;;;;;-3.80;99.90;;;;;;5090552;28;19912;-66
2022/01/19 06:47:28;;;;;;;;;;;-3.70;99.90;;;;;;5083026;28;20364;-68
2022/01/19 06:49:53;;;;;;;;;;;-3.70;99.90;;;;;;5077411;28;20408;-69
2022/01/19 06:52:19;;;;;;;;;;;-3.70;99.90;;;;;;5078687;28;19962;-69
2022/01/19 06:54:45;;;;;;;;;;;-3.80;99.90;;;;;;5079437;28;19944;-67
2022/01/19 06:57:10;;;;;;;;;;;-3.80;99.90;;;;;;5081960;28;19947;-69
2022/01/19 06:59:36;;;;;;;;;;;-3.70;99.90;;;;;;5074004;28;19924;-69
2022/01/19 07:02:01;;;;;;;;;;;-3.70;99.90;;;;;;5073751;28;19915;-68
2022/01/19 07:04:27;;;;;;;;;;;-3.60;99.90;;;;;;5074841;28;20022;-67
2022/01/19 07:06:53;;;;;;;;;;;-3.50;99.90;;;;;;5087183;28;19974;-66
2022/01/19 07:09:18;;;;;;;;;;;-3.50;99.90;;;;;;5075278;28;20331;-67
2022/01/19 07:11:44;;;;;;;;;;;-3.40;99.90;;;;;;5074052;28;20417;-67
2022/01/19 07:14:12;;;;;;;;;;;-3.30;99.90;;;;;;5078031;28;19951;-68
2022/01/19 07:16:38;;;;;;;;;;;-3.40;99.90;;;;;;5072143;28;20344;-70
2022/01/19 07:19:04;;;;;;;;;;;-3.40;99.90;;;;;;5076127;28;19920;-70
2022/01/19 07:21:29;;;;;;;;;;;-3.20;99.90;;;;;;5076968;28;20007;-70
2022/01/19 07:23:55;;;;;;;;;;;-3.10;99.90;;;;;;5086839;28;20014;-70
2022/01/19 07:26:21;;;;;;;;;;;-3.10;99.90;;;;;;5086963;28;19956;-68
2022/01/19 07:28:46;;;;;;;;;;;-3.10;99.90;;;;;;5076096;28;19916;-69
2022/01/19 07:31:12;;;;;;;;;;;-3.00;99.90;;;;;;5072491;28;19912;-69
2022/01/19 07:33:37;;;;;;;;;;;-3.00;99.90;;;;;;5074007;28;19917;-69
2022/01/19 07:36:03;;;;;;;;;;;-3.10;99.90;;;;;;5072894;28;19962;-69
2022/01/19 07:38:29;;;;;;;;;;;-3.00;99.90;;;;;;5083941;28;19921;-69
2022/01/19 07:40:54;;;;;;;;;;;-2.90;99.90;;;;;;5076414;28;20011;-70
2022/01/19 07:43:20;;;;;;;;;;;-2.80;99.90;;;;;;5084046;28;20347;-68
2022/01/19 07:45:46;;;;;;;;;;;-2.70;99.90;;;;;;5094040;28;19927;-67
2022/01/19 07:48:12;;;;;;;;;;;-2.60;99.90;;;;;;5082229;28;20363;-69
2022/01/19 07:50:38;;;;;;;;;;;-2.60;99.90;;;;;;5082888;28;19921;-66
2022/01/19 07:53:03;;;;;;;;;;;-2.50;99.90;;;;;;5074612;28;19926;-67
2022/01/19 07:55:29;;;;;;;;;;;-2.50;99.90;;;;;;5075322;28;20625;-67
2022/01/19 07:57:55;;;;;;;;;;;-2.50;99.90;;;;;;5074684;28;19923;-68
2022/01/19 08:00:20;;;;;;;;;;;-2.40;99.90;;;;;;5071163;28;19931;-67
2022/01/19 08:02:46;;;;;;;;;;;-2.40;99.90;;;;;;5075712;28;19920;-67
2022/01/19 08:05:12;;;;;;;;;;;-2.20;99.90;;;;;;5074774;28;19916;-67
2022/01/19 08:07:37;;;;;;;;;;;-2.10;99.90;;;;;;5074698;28;19928;-67
2022/01/19 08:10:05;;;;;;;;;;;-2.10;99.90;;;;;;5069451;28;19939;-67
2022/01/19 08:12:30;;;;;;;;;;;-2.10;99.90;;;;;;5074546;28;19916;-67
2022/01/19 08:14:58;;;;;;;;;;;-2.00;99.90;;;;;;5078547;28;19921;-67
2022/01/19 08:17:23;;;;;;;;;;;-1.90;99.90;;;;;;5084219;28;19920;-67
2022/01/19 08:19:49;;;;;;;;;;;-1.80;99.90;;;;;;5082846;28;19935;-67
2022/01/19 08:22:15;;;;;;;;;;;-1.80;99.90;;;;;;5086559;28;20481;-68
2022/01/19 08:24:40;;;;;;;;;;;-1.80;99.90;;;;;;5081169;28;19917;-71
2022/01/19 08:27:06;;;;;;;;;;;-1.60;99.90;;;;;;5072686;28;20402;-66
2022/01/19 08:29:31;;;;;;;;;;;-1.10;99.90;;;;;;5071603;28;19924;-68
2022/01/19 08:31:57;;;;;;;;;;;-0.70;99.90;;;;;;5085771;28;20497;-69
2022/01/19 08:34:23;;;;;;;;;;;-0.20;99.90;;;;;;5069582;28;20434;-69
2022/01/19 08:36:48;;;;;;;;;;;0.20;99.90;;;;;;5078854;28;19927;-68
2022/01/19 08:39:14;;;;;;;;;;;0.20;99.90;;;;;;5072485;28;19932;-68
2022/01/19 08:41:39;;;;;;;;;;;-0.10;99.90;;;;;;5071301;28;20053;-69
2022/01/19 08:44:05;;;;;;;;;;;-0.50;99.90;;;;;;5075808;28;19924;-69
2022/01/19 08:46:30;;;;;;;;;;;-0.40;99.90;;;;;;5072629;28;19920;-70
2022/01/19 08:48:56;;;;;;;;;;;0.00;99.90;;;;;;5078426;28;20021;-69
2022/01/19 08:51:21;;;;;;;;;;;0.40;99.90;;;;;;5075804;28;19916;-69
2022/01/19 08:53:47;;;;;;;;;;;0.70;99.90;;;;;;5080686;28;19931;-70
2022/01/19 08:56:13;;;;;;;;;;;1.00;99.90;;;;;;5077141;28;20055;-71
2022/01/19 08:58:38;;;;;;;;;;;1.10;99.90;;;;;;5081724;28;19935;-69
2022/01/19 09:01:04;;;;;;;;;;;1.40;99.90;;;;;;5076334;28;19916;-70
2022/01/19 09:03:30;;;;;;;;;;;1.40;99.90;;;;;;5079837;28;20320;-70
2022/01/19 09:05:55;;;;;;;;;;;1.30;99.90;;;;;;5084340;28;19940;-70
2022/01/19 09:08:21;;;;;;;;;;;0.90;99.90;;;;;;5073578;28;19925;-69
2022/01/19 09:10:50;;;;;;;;;;;0.60;99.90;;;;;;5079476;28;19952;-71
2022/01/19 09:13:16;;;;;;;;;;;0.40;99.90;;;;;;5082163;28;19949;-70
2022/01/19 09:15:41;;;;;;;;;;;0.20;99.90;;;;;;5078644;28;19916;-70
2022/01/19 09:18:07;;;;;;;;;;;0.20;99.90;;;;;;5076808;28;19920;-69
2022/01/19 09:20:33;;;;;;;;;;;0.20;99.90;;;;;;5081944;28;19920;-69
2022/01/19 09:22:58;;;;;;;;;;;0.30;99.90;;;;;;5085918;28;20462;-70
2022/01/19 09:25:24;;;;;;;;;;;0.60;99.90;;;;;;5069411;28;20387;-70
2022/01/19 09:27:49;;;;;;;;;;;0.90;99.90;;;;;;5076417;28;19924;-69
2022/01/19 09:30:16;;;;;;;;;;;1.20;99.90;;;;;;5080335;28;19936;-68
2022/01/19 09:32:54;;;;;;;;;;;1.50;99.90;;;;;;5082394;28;19955;-70
2022/01/19 09:35:24;;;;;;;;;;;1.70;99.90;;;;;;5073675;28;19916;-70
2022/01/19 09:37:49;;;;;;;;;;;1.60;99.90;;;;;;5071454;28;19966;-69
2022/01/19 09:40:15;;;;;;;;;;;1.50;99.90;;;;;;5081110;28;19927;-70
2022/01/19 09:42:43;;;;;;;;;;;1.40;99.90;;;;;;5080936;28;19919;-70
2022/01/19 09:45:08;;;;;;;;;;;1.30;99.90;;;;;;5082517;28;19920;-70
2022/01/19 09:47:34;;;;;;;;;;;1.10;99.90;;;;;;5086499;28;19924;-70
2022/01/19 09:49:59;;;;;;;;;;;1.00;99.90;;;;;;5088812;28;19912;-70
2022/01/19 09:52:25;;;;;;;;;;;1.00;99.90;;;;;;5079092;28;20406;-70
2022/01/19 09:54:53;;;;;;;;;;;1.10;99.90;;;;;;5084795;28;19947;-70
2022/01/19 09:57:19;;;;;;;;;;;1.10;99.90;;;;;;5087040;28;19924;-72
2022/01/19 09:59:45;;;;;;;;;;;1.00;99.90;;;;;;5078381;28;19955;-70
2022/01/19 10:02:10;;;;;;;;;;;1.00;99.90;;;;;;5079381;28;19951;-70
2022/01/19 10:04:38;;;;;;;;;;;0.90;99.90;;;;;;5076218;28;20367;-71
2022/01/19 10:07:09;;;;;;;;;;;0.90;99.90;;;;;;5082544;28;20307;-70
2022/01/19 10:09:49;;;;;;;;;;;1.00;99.90;;;;;;5085196;28;19920;-70
2022/01/19 10:17:56;;;;;;;;;;;0.80;99.90;;;;;;5083499;28;19931;-68
2022/01/19 10:20:22;;;;;;;;;;;0.90;99.90;;;;;;5084231;28;19920;-68
2022/01/19 10:22:48;;;;;;;;;;;0.90;99.90;;;;;;5072653;28;19923;-69
2022/01/19 10:25:14;;;;;;;;;;;0.90;99.90;;;;;;5080175;28;19912;-69
2022/01/19 10:27:40;;;;;;;;;;;0.90;99.90;;;;;;5088556;28;19924;-68
2022/01/19 10:30:06;;;;;;;;;;;0.90;99.90;;;;;;5077583;28;19912;-68
2022/01/19 10:32:36;;;;;;;;;;;0.80;99.90;;;;;;5085535;28;19931;-69
2022/01/19 10:35:19;;;;;;;;;;;0.80;99.90;;;;;;5084496;28;19924;-68
2022/01/19 10:37:46;;;;;;;;;;;0.90;99.90;;;;;;5090176;28;20049;-69
2022/01/19 10:40:19;;;;;;;;;;;1.10;99.90;;;;;;5090663;28;19924;-68
2022/01/19 10:42:45;;;;;;;;;;;1.20;99.90;;;;;;5090497;28;19926;-68
2022/01/19 10:45:11;;;;;;;;;;;1.40;99.90;;;;;;5086403;28;19916;-67
2022/01/19 10:47:40;;;;;;;;;;;1.40;99.90;;;;;;5083915;28;19976;-67
2022/01/19 10:50:06;;;;;;;;;;;1.40;99.90;;;;;;5070424;28;19923;-68
2022/01/19 10:52:37;;;;;;;;;;;1.50;99.90;;;;;;5075224;28;19920;-68
2022/01/19 10:55:07;;;;;;;;;;;1.70;99.90;;;;;;5072327;28;20356;-68
2022/01/19 10:57:34;;;;;;;;;;;1.60;99.90;;;;;;5082956;28;19932;-66
2022/01/19 11:00:09;;;;;;;;;;;1.50;99.90;;;;;;5074980;28;20564;-66
2022/01/19 11:02:35;;;;;;;;;;;1.40;99.90;;;;;;5074759;28;19924;-68
2022/01/19 11:05:01;;;;;;;;;;;1.20;99.90;;;;;;5072062;28;20367;-68
2022/01/19 11:07:26;;;;;;;;;;;1.10;99.90;;;;;;5074903;28;19932;-68
2022/01/19 11:10:26;;;;;;;;;;;1.10;99.90;;;;;;5075608;28;20541;-67
2022/01/19 11:12:48;;;;;;;;;;;1.00;99.90;;;;;;5069106;28;19927;-66
2022/01/19 11:15:17;;;;;;;;;;;1.00;99.90;;;;;;5059076;28;20003;-66
2022/01/19 11:17:43;;;;;;;;;;;1.00;99.90;;;;;;5070457;28;19951;-67
2022/01/19 11:20:11;;;;;;;;;;;0.90;99.90;;;;;;5079583;28;20045;-65
2022/01/19 11:22:41;;;;;;;;;;;0.80;99.90;;;;;;5080103;28;19935;-66
2022/01/19 11:25:16;;;;;;;;;;;0.80;99.90;;;;;;5076055;28;20046;-68
2022/01/19 11:27:44;;;;;;;;;;;0.90;99.90;;;;;;5066302;28;19919;-68
2022/01/19 11:30:19;;;;;;;;;;;1.00;99.90;;;;;;5073845;28;19913;-68
2022/01/19 11:33:05;;;;;;;;;;;1.10;99.90;;;;;;5071347;28;20614;-68
2022/01/19 11:35:31;;;;;;;;;;;1.20;99.90;;;;;;5069696;28;19920;-68
2022/01/19 11:37:57;;;;;;;;;;;1.50;99.90;;;;;;5069419;28;19936;-68
2022/01/19 11:40:32;;;;;;;;;;;1.80;99.90;;;;;;5069423;28;19933;-66
2022/01/19 11:43:33;;;;;;;;;;;2.20;99.90;;;;;;5076124;28;19963;-67
2022/01/19 11:46:00;;;;;;;;;;;2.60;99.90;;;;;;5029752;28;20565;-68
2022/01/19 11:48:28;;;;;;;;;;;2.40;99.90;;;;;;5071427;28;19955;-68
2022/01/19 11:50:55;;;;;;;;;;;2.40;99.90;;;;;;5078470;28;19957;-68
2022/01/19 11:53:21;;;;;;;;;;;2.70;99.90;;;;;;5070579;28;19974;-68
2022/01/19 11:56:00;;;;;;;;;;;4.10;99.90;;;;;;5078102;28;19916;-68
2022/01/19 11:58:26;;;;;;;;;;;3.20;99.90;;;;;;5073982;28;19920;-68
2022/01/19 12:00:53;;;;;;;;;;;3.40;99.90;;;;;;5077667;28;20383;-69
2022/01/19 12:03:25;;;;;;;;;;;3.80;99.90;;;;;;5078398;28;21636;-69
2022/01/19 12:05:52;;;;;;;;;;;4.00;99.90;;;;;;5073840;28;20363;-70
2022/01/19 12:08:34;;;;;;;;;;;4.00;99.90;;;;;;5073890;28;20710;-70
2022/01/19 12:11:16;;;;;;;;;;;3.60;99.90;;;;;;5076175;28;21068;-70
2022/01/19 12:16:29;;;;;;;;;;;3.80;99.90;;;;;;5080601;28;20596;-70
2022/01/19 12:19:00;;;;;;;;;;;3.60;99.90;;;;;;5078903;28;20640;-70
2022/01/19 12:21:29;;;;;;;;;;;2.90;99.90;;;;;;5074878;28;19920;-70
2022/01/19 12:23:54;;;;;;;;;;;2.10;99.90;;;;;;5083043;28;20539;-69
2022/01/19 12:26:20;;;;;;;;;;;1.70;99.90;;;;;;5076385;28;19924;-70
2022/01/19 12:28:46;;;;;;;;;;;1.30;99.90;;;;;;5075423;28;20493;-68
2022/01/19 12:31:23;;;;;;;;;;;1.10;99.90;;;;;;5075690;28;20045;-68
2022/01/19 12:34:04;;;;;;;;;;;1.00;99.90;;;;;;5083394;28;19927;-68
2022/01/19 12:36:39;;;;;;;;;;;1.00;99.90;;;;;;5078613;28;20003;-68
2022/01/19 12:39:25;;;;;;;;;;;0.80;99.90;;;;;;5079826;28;20376;-67
2022/01/19 12:41:58;;;;;;;;;;;0.80;99.90;;;;;;5070246;28;20363;-70
2022/01/19 12:44:42;;;;;;;;;;;0.70;99.90;;;;;;5081826;28;19969;-68
2022/01/19 12:47:29;;;;;;;;;;;0.70;99.90;;;;;;5080514;28;19927;-70
2022/01/19 12:49:58;;;;;;;;;;;0.70;99.90;;;;;;5081152;28;20028;-68
2022/01/19 12:52:28;;;;;;;;;;;0.70;99.90;;;;;;5081134;28;19923;-69
2022/01/19 12:54:55;;;;;;;;;;;0.60;99.90;;;;;;5076779;28;20352;-68
2022/01/19 12:57:21;;;;;;;;;;;0.60;99.90;;;;;;5083431;28;19960;-68
2022/01/19 12:59:49;;;;;;;;;;;0.50;99.90;;;;;;5075908;28;19968;-68
2022/01/19 13:02:15;;;;;;;;;;;0.60;99.90;;;;;;5084893;28;19920;-68
2022/01/19 13:04:42;;;;;;;;;;;0.70;99.90;;;;;;5076415;28;19917;-67
2022/01/19 13:07:15;;;;;;;;;;;0.60;99.90;;;;;;5075747;28;20274;-69
2022/01/19 13:10:05;;;;;;;;;;;0.60;99.90;;;;;;5079200;28;20352;-69
2022/01/19 13:12:32;;;;;;;;;;;0.60;99.90;;;;;;5077379;28;20330;-68
2022/01/19 13:14:58;;;;;;;;;;;0.50;99.90;;;;;;5080941;28;19920;-67
2022/01/19 13:17:23;;;;;;;;;;;0.50;99.90;;;;;;5075791;28;19974;-68
2022/01/19 13:19:49;;;;;;;;;;;0.40;99.90;;;;;;5074434;28;20030;-70
2022/01/19 13:22:14;;;;;;;;;;;0.50;99.90;;;;;;5079779;28;19920;-68
2022/01/19 13:24:42;;;;;;;;;;;0.50;99.90;;;;;;5076529;28;19912;-68
2022/01/19 13:27:10;;;;;;;;;;;0.50;99.90;;;;;;5079532;28;19997;-67
2022/01/19 13:29:41;;;;;;;;;;;0.50;99.90;;;;;;5075094;28;19978;-67
2022/01/19 13:32:07;;;;;;;;;;;0.50;99.90;;;;;;5084715;28;19919;-69
2022/01/19 13:34:34;;;;;;;;;;;0.40;99.90;;;;;;5075053;28;19933;-69
2022/01/19 13:37:01;;;;;;;;;;;0.30;99.90;;;;;;5078540;28;20311;-69
2022/01/19 13:39:28;;;;;;;;;;;0.30;99.90;;;;;;5080047;28;19926;-66
2022/01/19 13:41:54;;;;;;;;;;;0.30;99.90;;;;;;5074589;28;19999;-67
2022/01/19 13:44:21;;;;;;;;;;;0.40;99.90;;;;;;5078026;28;19924;-67
2022/01/19 13:46:46;;;;;;;;;;;0.40;99.90;;;;;;5078350;28;20641;-68
2022/01/19 13:49:13;;;;;;;;;;;-0.50;99.90;;;;;;5084976;28;19928;-67
2022/01/19 13:51:41;;;;;;;;;;;0.40;99.90;;;;;;5082494;28;19920;-68
2022/01/19 13:54:07;;;;;;;;;;;0.40;99.90;;;;;;5078668;28;19986;-68
2022/01/19 13:56:35;;;;;;;;;;;0.30;99.90;;;;;;5078473;28;19946;-66
2022/01/19 13:59:07;;;;;;;;;;;0.20;99.90;;;;;;5086107;28;19927;-66
2022/01/19 14:01:33;;;;;;;;;;;0.20;99.90;;;;;;5079209;28;20617;-66
2022/01/19 14:04:05;;;;;;;;;;;0.20;99.90;;;;;;5076051;28;20328;-67
2022/01/19 14:06:41;;;;;;;;;;;0.20;99.90;;;;;;5081115;28;20664;-68
2022/01/19 14:09:09;;;;;;;;;;;0.20;99.90;;;;;;5079431;28;20022;-65
2022/01/19 14:11:36;;;;;;;;;;;0.20;99.90;;;;;;5088377;28;19918;-66
2022/01/19 14:14:05;;;;;;;;;;;0.10;99.90;;;;;;5082174;28;19969;-66
2022/01/19 14:16:42;;;;;;;;;;;0.10;99.90;;;;;;5088846;28;20319;-66
2022/01/19 14:19:09;;;;;;;;;;;0.10;99.90;;;;;;5078694;28;20866;-68
2022/01/19 14:21:51;;;;;;;;;;;0.00;99.90;;;;;;5082664;28;19912;-68
2022/01/19 14:24:17;;;;;;;;;;;0.00;99.90;;;;;;5082910;28;20716;-68
2022/01/19 14:26:59;;;;;;;;;;;0.00;99.90;;;;;;5088416;28;20030;-68
2022/01/19 14:29:25;;;;;;;;;;;0.00;99.90;;;;;;5086070;28;19951;-68
2022/01/19 14:31:52;;;;;;;;;;;0.00;99.90;;;;;;5077829;28;19939;-68
2022/01/19 14:34:34;;;;;;;;;;;0.00;99.90;;;;;;5081623;28;19924;-69
2022/01/19 14:37:16;;;;;;;;;;;0.10;99.90;;;;;;5082169;28;19923;-71
2022/01/19 14:39:45;;;;;;;;;;;0.10;99.90;;;;;;5078557;28;19939;-67
2022/01/19 14:42:10;;;;;;;;;;;0.10;99.90;;;;;;5087000;28;19912;-67
2022/01/19 14:44:41;;;;;;;;;;;0.10;99.90;;;;;;5072388;28;19937;-68
2022/01/19 14:47:16;;;;;;;;;;;1.20;99.90;;;;;;5078477;28;19946;-68
2022/01/19 14:49:44;;;;;;;;;;;0.00;99.90;;;;;;5076948;28;21426;-67
2022/01/19 14:52:13;;;;;;;;;;;0.00;99.90;;;;;;5089498;28;19919;-67
2022/01/19 14:54:39;;;;;;;;;;;0.00;99.90;;;;;;5091166;28;19978;-67
2022/01/19 14:57:04;;;;;;;;;;;0.00;99.90;;;;;;5082344;28;19922;-68
2022/01/19 14:59:35;;;;;;;;;;;0.00;99.90;;;;;;5072647;28;19916;-67
2022/01/19 15:02:02;;;;;;;;;;;0.00;99.90;;;;;;5078175;28;19946;-67
2022/01/19 15:04:28;;;;;;;;;;;0.00;99.90;;;;;;5074690;28;19931;-67
2022/01/19 15:06:58;;;;;;;;;;;0.00;99.90;;;;;;5083005;28;19916;-67
2022/01/19 15:09:24;;;;;;;;;;;0.00;99.90;;;;;;5073838;28;20305;-68
2022/01/19 15:11:50;;;;;;;;;;;0.10;99.90;;;;;;5079699;28;19927;-67
2022/01/19 15:14:16;;;;;;;;;;;0.10;99.90;;;;;;5080945;28;19967;-68
2022/01/19 15:16:42;;;;;;;;;;;0.20;99.90;;;;;;5081708;28;19912;-67
2022/01/19 15:19:07;;;;;;;;;;;0.20;99.90;;;;;;5072425;28;19927;-68
2022/01/19 15:21:33;;;;;;;;;;;0.20;99.90;;;;;;5082658;28;19931;-66
2022/01/19 15:23:59;;;;;;;;;;;0.30;99.90;;;;;;5081369;28;19920;-67
2022/01/19 15:26:25;;;;;;;;;;;0.30;99.90;;;;;;5075819;28;19927;-69
2022/01/19 15:28:51;;;;;;;;;;;0.30;99.90;;;;;;5077078;28;19916;-68
2022/01/19 15:31:17;;;;;;;;;;;0.30;99.90;;;;;;5074938;28;20371;-67
2022/01/19 15:33:42;;;;;;;;;;;0.20;99.90;;;;;;5077649;28;19939;-69
2022/01/19 15:36:09;;;;;;;;;;;0.20;99.90;;;;;;5074386;28;19920;-68
2022/01/19 15:38:35;;;;;;;;;;;-0.20;99.90;;;;;;5077984;28;20287;-69
2022/01/19 15:41:01;;;;;;;;;;;0.20;99.90;;;;;;5076422;28;19924;-69
2022/01/19 15:43:27;;;;;;;;;;;0.10;99.90;;;;;;5081284;28;19920;-69
2022/01/19 15:45:52;;;;;;;;;;;0.00;99.90;;;;;;5072846;28;20449;-68
2022/01/19 15:48:20;;;;;;;;;;;-0.10;99.90;;;;;;5092964;28;19970;-67
2022/01/19 15:50:46;;;;;;;;;;;0.00;99.90;;;;;;5085816;28;19922;-69
2022/01/19 15:53:12;;;;;;;;;;;0.00;99.90;;;;;;5087131;28;20079;-69
2022/01/19 15:55:38;;;;;;;;;;;0.00;99.90;;;;;;5073036;28;20007;-69